Siteam Voyager — 9VCN3 — position and weather

sailwx.info

Track history (hours):
 
Tides and Currents Weather Stations Pressure Air Temp Water Temp Dewpoint Dewpoint Depression Visibility Wind Speed Wind Dir Waves Ship Positions

Siteam Voyager

Last reported at 2014-Dec-18 11:10 UTC. Time now 2014-Dec-18 22:26 UTC.
Position N 29°22' W 094°54'.

Length 183 m; draft 10.1 m.

Type: Ship (hazmat cat B). MMSI: 565812000.

Date/timePositionNaut miles runAvg speedWind from/ knotsBaromVisibWave heightAir tempDewpointWater temp
2014-Dec-18 11:10N 29°22' W 094°54'  
2014-Dec-13 06:29N 29°18' W 094°37'1010.5
2014-Dec-13 05:33N 29°22' W 094°48'1110.9
2014-Dec-13 04:33N 29°31' W 094°53'1110.9
2014-Dec-13 03:33N 29°41' W 094°59'3 2.8
2014-Dec-13 02:33N 29°43' W 095°01'0 0.0
2014-Dec-13 01:33N 29°43' W 095°01'0 0.0
2014-Dec-13 00:33N 29°43' W 095°01'0 0.0
2014-Dec-12 23:33N 29°43' W 095°01'0 0.0
2014-Dec-12 22:33N 29°43' W 095°01'0 0.0
2014-Dec-12 21:30N 29°43' W 095°01'944943.7
2014-Dec-12 20:30N 13°60' W 095°01'944993.1
2014-Dec-12 19:33N 29°43' W 095°01'0 0.0
2014-Dec-12 18:30N 29°43' W 095°01'0 0.0
2014-Dec-12 17:33N 29°43' W 095°01'0 0.0
2014-Dec-12 16:30N 29°43' W 095°01'0 0.0
2014-Dec-12 15:33N 29°43' W 095°01'0 0.0
2014-Dec-12 14:33N 29°43' W 095°01'0 0.0
2014-Dec-12 13:33N 29°43' W 095°01'0 0.0
2014-Dec-12 12:33N 29°43' W 095°01'0 0.0
2014-Dec-12 11:33N 29°43' W 095°01'0 0.0
2014-Dec-12 10:33N 29°43' W 095°01'0 0.0
2014-Dec-12 09:33N 29°43' W 095°01'0 0.0
2014-Dec-12 08:33N 29°43' W 095°01'0 0.0
2014-Dec-12 07:33N 29°43' W 095°01'0 0.0
2014-Dec-12 06:30N 29°43' W 095°01'0 0.0
2014-Dec-12 05:33N 29°43' W 095°01'0 0.0
2014-Dec-12 04:33N 29°43' W 095°01'0 0.0
2014-Dec-12 03:33N 29°43' W 095°01'0 0.0
2014-Dec-12 02:33N 29°43' W 095°01'0 0.0
2014-Dec-12 01:33N 29°43' W 095°01'0 0.0
2014-Dec-12 00:33N 29°43' W 095°01'0 0.0
2014-Dec-11 23:33N 29°43' W 095°01'0 0.0
2014-Dec-11 22:33N 29°43' W 095°01'0 0.0
2014-Dec-11 21:30N 29°43' W 095°01'0 0.0
2014-Dec-11 20:33N 29°43' W 095°01'0 0.0
2014-Dec-11 19:33N 29°43' W 095°01'0 0.0
2014-Dec-11 18:33N 29°43' W 095°01'9 9.0
2014-Dec-11 17:33N 29°35' W 094°56'1211.7
2014-Dec-11 16:33N 29°25' W 094°50'1010.0
2014-Dec-11 15:33N 29°20' W 094°40'9 0.7
2014-Dec-11 02:29N 29°15' W 094°31'0 0.0
2014-Dec-11 01:08N 29°15' W 094°31'0 0.0
2014-Dec-11 00:32N 29°15' W 094°31'0 0.0
2014-Dec-10 23:29N 29°15' W 094°31'0 0.0
2014-Dec-10 22:32N 29°15' W 094°31'0 0.0
2014-Dec-10 21:05N 29°15' W 094°31'0 0.0
2014-Dec-10 20:29N 29°15' W 094°31'0 0.0
2014-Dec-10 18:08N 29°15' W 094°31'0 0.0
2014-Dec-10 16:23N 29°15' W 094°31'0 0.0
2014-Dec-10 15:32N 29°15' W 094°31'0 0.0
2014-Dec-10 13:20N 29°15' W 094°31'0 0.0
2014-Dec-10 12:29N 29°15' W 094°31'0 0.0
2014-Dec-10 11:29N 29°15' W 094°31'0 0.0
2014-Dec-10 10:32N 29°15' W 094°31'0 0.0
2014-Dec-10 08:11N 29°15' W 094°31'0 0.0
2014-Dec-09 14:17N 29°15' W 094°31'0 0.0
2014-Dec-09 13:29N 29°15' W 094°31'1 0.3
2014-Dec-09 11:27N 29°15' W 094°30'  
Track history (hours):
 
Tides and Currents Weather Stations Pressure Air Temp Water Temp Dewpoint Dewpoint Depression Visibility Wind Speed Wind Dir Waves Ship Positions

Siteam Voyager

Last reported at 2014-Dec-18 11:10 UTC. Time now 2014-Dec-18 22:26 UTC.
Position N 29°22' W 094°54'.

Length 183 m; draft 10.1 m.

Type: Ship (hazmat cat B). MMSI: 565812000.

Date/timePositionNaut miles runAvg speedWind from/ knotsBaromVisibWave heightAir tempDewpointWater temp
2014-Dec-18 11:10N 29°22' W 094°54'  
2014-Dec-13 06:29N 29°18' W 094°37'1010.5
2014-Dec-13 05:33N 29°22' W 094°48'1110.9
2014-Dec-13 04:33N 29°31' W 094°53'1110.9
2014-Dec-13 03:33N 29°41' W 094°59'3 2.8
2014-Dec-13 02:33N 29°43' W 095°01'0 0.0
2014-Dec-13 01:33N 29°43' W 095°01'0 0.0
2014-Dec-13 00:33N 29°43' W 095°01'0 0.0
2014-Dec-12 23:33N 29°43' W 095°01'0 0.0
2014-Dec-12 22:33N 29°43' W 095°01'0 0.0
2014-Dec-12 21:30N 29°43' W 095°01'944943.7
2014-Dec-12 20:30N 13°60' W 095°01'944993.1
2014-Dec-12 19:33N 29°43' W 095°01'0 0.0
2014-Dec-12 18:30N 29°43' W 095°01'0 0.0
2014-Dec-12 17:33N 29°43' W 095°01'0 0.0
2014-Dec-12 16:30N 29°43' W 095°01'0 0.0
2014-Dec-12 15:33N 29°43' W 095°01'0 0.0
2014-Dec-12 14:33N 29°43' W 095°01'0 0.0
2014-Dec-12 13:33N 29°43' W 095°01'0 0.0
2014-Dec-12 12:33N 29°43' W 095°01'0 0.0
2014-Dec-12 11:33N 29°43' W 095°01'0 0.0
2014-Dec-12 10:33N 29°43' W 095°01'0 0.0
2014-Dec-12 09:33N 29°43' W 095°01'0 0.0
2014-Dec-12 08:33N 29°43' W 095°01'0 0.0
2014-Dec-12 07:33N 29°43' W 095°01'0 0.0
2014-Dec-12 06:30N 29°43' W 095°01'0 0.0
2014-Dec-12 05:33N 29°43' W 095°01'0 0.0
2014-Dec-12 04:33N 29°43' W 095°01'0 0.0
2014-Dec-12 03:33N 29°43' W 095°01'0 0.0
2014-Dec-12 02:33N 29°43' W 095°01'0 0.0
2014-Dec-12 01:33N 29°43' W 095°01'0 0.0
2014-Dec-12 00:33N 29°43' W 095°01'0 0.0
2014-Dec-11 23:33N 29°43' W 095°01'0 0.0
2014-Dec-11 22:33N 29°43' W 095°01'0 0.0
2014-Dec-11 21:30N 29°43' W 095°01'0 0.0
2014-Dec-11 20:33N 29°43' W 095°01'0 0.0
2014-Dec-11 19:33N 29°43' W 095°01'0 0.0
2014-Dec-11 18:33N 29°43' W 095°01'9 9.0
2014-Dec-11 17:33N 29°35' W 094°56'1211.7
2014-Dec-11 16:33N 29°25' W 094°50'1010.0
2014-Dec-11 15:33N 29°20' W 094°40'9 0.7
2014-Dec-11 02:29N 29°15' W 094°31'0 0.0
2014-Dec-11 01:08N 29°15' W 094°31'0 0.0
2014-Dec-11 00:32N 29°15' W 094°31'0 0.0
2014-Dec-10 23:29N 29°15' W 094°31'0 0.0
2014-Dec-10 22:32N 29°15' W 094°31'0 0.0
2014-Dec-10 21:05N 29°15' W 094°31'0 0.0
2014-Dec-10 20:29N 29°15' W 094°31'0 0.0
2014-Dec-10 18:08N 29°15' W 094°31'0 0.0
2014-Dec-10 16:23N 29°15' W 094°31'0 0.0
2014-Dec-10 15:32N 29°15' W 094°31'0 0.0
2014-Dec-10 13:20N 29°15' W 094°31'0 0.0
2014-Dec-10 12:29N 29°15' W 094°31'0 0.0
2014-Dec-10 11:29N 29°15' W 094°31'0 0.0
2014-Dec-10 10:32N 29°15' W 094°31'0 0.0
2014-Dec-10 08:11N 29°15' W 094°31'0 0.0
2014-Dec-09 14:17N 29°15' W 094°31'0 0.0
2014-Dec-09 13:29N 29°15' W 094°31'1 0.3
2014-Dec-09 11:27N 29°15' W 094°30'  

Dump ship's entire track history